sensor_id;sensor_type;location;lat;lon;timestamp;temperature;humidity
25334;DHT22;24559;53.590;9.764;2023-04-03T00:01:57;2.80;99.90
25334;DHT22;24559;53.590;9.764;2023-04-03T00:04:23;2.80;99.90
25334;DHT22;24559;53.590;9.764;2023-04-03T00:06:49;2.80;99.90
25334;DHT22;24559;53.590;9.764;2023-04-03T00:09:14;2.80;99.90
25334;DHT22;24559;53.590;9.764;2023-04-03T00:11:40;2.80;99.90
25334;DHT22;24559;53.590;9.764;2023-04-03T00:14:06;2.70;99.90
25334;DHT22;24559;53.590;9.764;2023-04-03T00:16:31;2.70;99.90
25334;DHT22;24559;53.590;9.764;2023-04-03T00:18:57;2.70;99.90
25334;DHT22;24559;53.590;9.764;2023-04-03T00:21:23;2.60;99.90
25334;DHT22;24559;53.590;9.764;2023-04-03T00:23:48;2.60;99.90
25334;DHT22;24559;53.590;9.764;2023-04-03T00:26:14;2.60;99.90
25334;DHT22;24559;53.590;9.764;2023-04-03T00:28:40;2.50;99.90
25334;DHT22;24559;53.590;9.764;2023-04-03T00:31:06;2.50;99.90
25334;DHT22;24559;53.590;9.764;2023-04-03T00:33:31;2.50;99.90
25334;DHT22;24559;53.590;9.764;2023-04-03T00:35:57;2.50;99.90
25334;DHT22;24559;53.590;9.764;2023-04-03T00:38:23;2.50;99.90
25334;DHT22;24559;53.590;9.764;2023-04-03T00:40:49;2.50;99.90
25334;DHT22;24559;53.590;9.764;2023-04-03T00:43:16;2.50;99.90
25334;DHT22;24559;53.590;9.764;2023-04-03T00:45:43;2.50;99.90
25334;DHT22;24559;53.590;9.764;2023-04-03T00:48:10;2.40;99.90
25334;DHT22;24559;53.590;9.764;2023-04-03T00:50:38;2.40;99.90
25334;DHT22;24559;53.590;9.764;2023-04-03T00:53:06;2.40;99.90
25334;DHT22;24559;53.590;9.764;2023-04-03T00:55:32;2.40;99.90
25334;DHT22;24559;53.590;9.764;2023-04-03T00:58:00;2.40;99.90
25334;DHT22;24559;53.590;9.764;2023-04-03T01:00:26;2.40;99.90
25334;DHT22;24559;53.590;9.764;2023-04-03T01:02:52;2.30;99.90
25334;DHT22;24559;53.590;9.764;2023-04-03T01:05:18;2.30;99.90
25334;DHT22;24559;53.590;9.764;2023-04-03T01:07:45;2.30;99.90
25334;DHT22;24559;53.590;9.764;2023-04-03T01:10:12;2.20;99.90
25334;DHT22;24559;53.590;9.764;2023-04-03T01:12:40;2.20;99.90
25334;DHT22;24559;53.590;9.764;2023-04-03T01:15:08;2.20;99.90
25334;DHT22;24559;53.590;9.764;2023-04-03T01:22:40;2.10;99.90
25334;DHT22;24559;53.590;9.764;2023-04-03T01:25:09;2.20;99.90
25334;DHT22;24559;53.590;9.764;2023-04-03T01:27:34;2.10;99.90
25334;DHT22;24559;53.590;9.764;2023-04-03T01:30:03;2.20;99.90
25334;DHT22;24559;53.590;9.764;2023-04-03T01:32:29;2.20;99.90
25334;DHT22;24559;53.590;9.764;2023-04-03T01:34:55;2.10;99.90
25334;DHT22;24559;53.590;9.764;2023-04-03T01:37:21;2.10;99.90
25334;DHT22;24559;53.590;9.764;2023-04-03T01:39:47;2.10;99.90
25334;DHT22;24559;53.590;9.764;2023-04-03T01:42:12;2.50;99.90
25334;DHT22;24559;53.590;9.764;2023-04-03T01:44:42;2.10;99.90
25334;DHT22;24559;53.590;9.764;2023-04-03T01:47:08;2.00;99.90
25334;DHT22;24559;53.590;9.764;2023-04-03T01:49:35;2.00;99.90
25334;DHT22;24559;53.590;9.764;2023-04-03T01:52:01;2.00;99.90
25334;DHT22;24559;53.590;9.764;2023-04-03T01:54:27;1.90;99.90
25334;DHT22;24559;53.590;9.764;2023-04-03T01:56:53;1.90;99.90
25334;DHT22;24559;53.590;9.764;2023-04-03T01:59:19;2.00;99.90
25334;DHT22;24559;53.590;9.764;2023-04-03T02:01:45;1.90;99.90
25334;DHT22;24559;53.590;9.764;2023-04-03T02:04:12;1.90;99.90
25334;DHT22;24559;53.590;9.764;2023-04-03T02:06:37;1.90;99.90
25334;DHT22;24559;53.590;9.764;2023-04-03T02:09:03;1.80;99.90
25334;DHT22;24559;53.590;9.764;2023-04-03T02:11:30;1.80;99.90
25334;DHT22;24559;53.590;9.764;2023-04-03T02:13:57;1.80;99.90
25334;DHT22;24559;53.590;9.764;2023-04-03T02:16:23;1.80;99.90
25334;DHT22;24559;53.590;9.764;2023-04-03T02:18:48;1.80;99.90
25334;DHT22;24559;53.590;9.764;2023-04-03T02:21:15;1.80;99.90
25334;DHT22;24559;53.590;9.764;2023-04-03T02:23:41;1.70;99.90
25334;DHT22;24559;53.590;9.764;2023-04-03T02:26:08;1.70;99.90
25334;DHT22;24559;53.590;9.764;2023-04-03T02:28:34;1.30;99.90
25334;DHT22;24559;53.590;9.764;2023-04-03T02:31:01;1.70;99.90
25334;DHT22;24559;53.590;9.764;2023-04-03T02:33:27;1.80;99.90
25334;DHT22;24559;53.590;9.764;2023-04-03T02:35:54;1.70;99.90
25334;DHT22;24559;53.590;9.764;2023-04-03T02:38:21;1.60;99.90
25334;DHT22;24559;53.590;9.764;2023-04-03T02:40:47;1.60;99.90
25334;DHT22;24559;53.590;9.764;2023-04-03T02:43:13;1.60;99.90
25334;DHT22;24559;53.590;9.764;2023-04-03T02:45:39;1.50;99.90
25334;DHT22;24559;53.590;9.764;2023-04-03T02:48:06;1.50;99.90
25334;DHT22;24559;53.590;9.764;2023-04-03T02:50:32;1.50;99.90
25334;DHT22;24559;53.590;9.764;2023-04-03T02:52:57;1.50;99.90
25334;DHT22;24559;53.590;9.764;2023-04-03T02:55:23;1.50;99.90
25334;DHT22;24559;53.590;9.764;2023-04-03T02:57:54;1.40;99.90
25334;DHT22;24559;53.590;9.764;2023-04-03T03:00:21;1.40;99.90
25334;DHT22;24559;53.590;9.764;2023-04-03T03:02:48;1.40;99.90
25334;DHT22;24559;53.590;9.764;2023-04-03T03:05:13;1.40;99.90
25334;DHT22;24559;53.590;9.764;2023-04-03T03:07:39;1.40;99.90
25334;DHT22;24559;53.590;9.764;2023-04-03T03:10:05;1.40;99.90
25334;DHT22;24559;53.590;9.764;2023-04-03T03:12:31;1.30;99.90
25334;DHT22;24559;53.590;9.764;2023-04-03T03:14:57;1.30;99.90
25334;DHT22;24559;53.590;9.764;2023-04-03T03:17:22;1.20;99.90
25334;DHT22;24559;53.590;9.764;2023-04-03T03:19:48;1.20;99.90
25334;DHT22;24559;53.590;9.764;2023-04-03T03:22:14;1.50;99.90
25334;DHT22;24559;53.590;9.764;2023-04-03T03:24:39;1.20;99.90
25334;DHT22;24559;53.590;9.764;2023-04-03T03:27:05;1.20;99.90
25334;DHT22;24559;53.590;9.764;2023-04-03T03:29:31;1.20;99.90
25334;DHT22;24559;53.590;9.764;2023-04-03T03:31:57;1.20;99.90
25334;DHT22;24559;53.590;9.764;2023-04-03T03:34:23;1.20;99.90
25334;DHT22;24559;53.590;9.764;2023-04-03T03:36:48;1.20;99.90
25334;DHT22;24559;53.590;9.764;2023-04-03T03:39:14;1.20;99.90
25334;DHT22;24559;53.590;9.764;2023-04-03T03:41:40;1.20;99.90
25334;DHT22;24559;53.590;9.764;2023-04-03T03:44:06;1.20;99.90
25334;DHT22;24559;53.590;9.764;2023-04-03T03:46:32;1.10;99.90
25334;DHT22;24559;53.590;9.764;2023-04-03T03:48:58;1.90;99.90
25334;DHT22;24559;53.590;9.764;2023-04-03T03:51:24;1.10;99.90
25334;DHT22;24559;53.590;9.764;2023-04-03T03:53:50;1.10;99.90
25334;DHT22;24559;53.590;9.764;2023-04-03T03:56:18;1.10;99.90
25334;DHT22;24559;53.590;9.764;2023-04-03T03:58:45;1.10;99.90
25334;DHT22;24559;53.590;9.764;2023-04-03T04:01:11;1.00;99.90
25334;DHT22;24559;53.590;9.764;2023-04-03T04:03:42;1.00;99.90
25334;DHT22;24559;53.590;9.764;2023-04-03T04:06:10;1.00;99.90
25334;DHT22;24559;53.590;9.764;2023-04-03T04:08:35;1.00;99.90
25334;DHT22;24559;53.590;9.764;2023-04-03T04:11:04;1.00;99.90
25334;DHT22;24559;53.590;9.764;2023-04-03T04:13:30;0.90;99.90
25334;DHT22;24559;53.590;9.764;2023-04-03T04:15:56;0.90;99.90
25334;DHT22;24559;53.590;9.764;2023-04-03T04:18:22;0.90;99.90
25334;DHT22;24559;53.590;9.764;2023-04-03T04:20:48;1.60;99.90
25334;DHT22;24559;53.590;9.764;2023-04-03T04:23:16;0.90;99.90
25334;DHT22;24559;53.590;9.764;2023-04-03T04:25:44;0.90;99.90
25334;DHT22;24559;53.590;9.764;2023-04-03T04:28:09;0.90;99.90
25334;DHT22;24559;53.590;9.764;2023-04-03T04:30:35;0.90;99.90
25334;DHT22;24559;53.590;9.764;2023-04-03T04:33:02;0.90;99.90
25334;DHT22;24559;53.590;9.764;2023-04-03T04:35:28;0.40;99.90
25334;DHT22;24559;53.590;9.764;2023-04-03T04:37:54;0.80;99.90
25334;DHT22;24559;53.590;9.764;2023-04-03T04:40:20;0.80;99.90
25334;DHT22;24559;53.590;9.764;2023-04-03T04:42:47;0.80;99.90
25334;DHT22;24559;53.590;9.764;2023-04-03T04:45:13;0.70;99.90
25334;DHT22;24559;53.590;9.764;2023-04-03T04:47:41;0.80;99.90
25334;DHT22;24559;53.590;9.764;2023-04-03T04:50:08;0.80;99.90
25334;DHT22;24559;53.590;9.764;2023-04-03T04:52:33;0.80;99.90
25334;DHT22;24559;53.590;9.764;2023-04-03T04:55:00;0.30;99.90
25334;DHT22;24559;53.590;9.764;2023-04-03T04:57:27;0.80;99.90
25334;DHT22;24559;53.590;9.764;2023-04-03T04:59:53;0.80;99.90
25334;DHT22;24559;53.590;9.764;2023-04-03T05:02:19;0.70;99.90
25334;DHT22;24559;53.590;9.764;2023-04-03T05:04:45;0.70;99.90
25334;DHT22;24559;53.590;9.764;2023-04-03T05:07:17;0.70;99.90
25334;DHT22;24559;53.590;9.764;2023-04-03T05:09:43;0.80;99.90
25334;DHT22;24559;53.590;9.764;2023-04-03T05:12:11;0.70;99.90
25334;DHT22;24559;53.590;9.764;2023-04-03T05:14:42;0.70;99.90
25334;DHT22;24559;53.590;9.764;2023-04-03T05:17:09;0.70;99.90
25334;DHT22;24559;53.590;9.764;2023-04-03T05:19:39;0.70;99.90
25334;DHT22;24559;53.590;9.764;2023-04-03T05:22:10;0.70;99.90
25334;DHT22;24559;53.590;9.764;2023-04-03T05:24:36;0.70;99.90
25334;DHT22;24559;53.590;9.764;2023-04-03T05:27:02;0.70;99.90
25334;DHT22;24559;53.590;9.764;2023-04-03T05:29:30;0.70;99.90
25334;DHT22;24559;53.590;9.764;2023-04-03T05:31:59;0.70;99.90
25334;DHT22;24559;53.590;9.764;2023-04-03T05:34:29;0.80;99.90
25334;DHT22;24559;53.590;9.764;2023-04-03T05:36:56;0.70;99.90
25334;DHT22;24559;53.590;9.764;2023-04-03T05:39:22;0.70;99.90
25334;DHT22;24559;53.590;9.764;2023-04-03T05:41:48;0.70;99.90
25334;DHT22;24559;53.590;9.764;2023-04-03T05:44:14;0.70;99.90
25334;DHT22;24559;53.590;9.764;2023-04-03T05:46:42;0.70;99.90
25334;DHT22;24559;53.590;9.764;2023-04-03T05:49:09;0.80;99.90
25334;DHT22;24559;53.590;9.764;2023-04-03T05:51:36;0.80;99.90
25334;DHT22;24559;53.590;9.764;2023-04-03T05:54:10;0.90;99.90
25334;DHT22;24559;53.590;9.764;2023-04-03T05:56:38;0.90;99.90
25334;DHT22;24559;53.590;9.764;2023-04-03T05:59:04;0.90;99.90
25334;DHT22;24559;53.590;9.764;2023-04-03T06:01:31;1.00;99.90
25334;DHT22;24559;53.590;9.764;2023-04-03T06:04:00;1.10;99.90
25334;DHT22;24559;53.590;9.764;2023-04-03T06:06:41;1.20;99.90
25334;DHT22;24559;53.590;9.764;2023-04-03T06:09:09;1.30;99.90
25334;DHT22;24559;53.590;9.764;2023-04-03T06:11:34;1.70;99.90
25334;DHT22;24559;53.590;9.764;2023-04-03T06:14:01;1.70;99.90
25334;DHT22;24559;53.590;9.764;2023-04-03T06:16:28;2.00;99.90
25334;DHT22;24559;53.590;9.764;2023-04-03T06:18:54;2.40;99.90
25334;DHT22;24559;53.590;9.764;2023-04-03T06:21:21;2.70;99.90
25334;DHT22;24559;53.590;9.764;2023-04-03T06:23:46;3.20;99.90
25334;DHT22;24559;53.590;9.764;2023-04-03T06:26:12;3.50;99.90
25334;DHT22;24559;53.590;9.764;2023-04-03T06:28:37;3.80;99.90
25334;DHT22;24559;53.590;9.764;2023-04-03T06:31:03;4.10;99.90
25334;DHT22;24559;53.590;9.764;2023-04-03T06:33:29;4.40;99.90
25334;DHT22;24559;53.590;9.764;2023-04-03T06:35:55;4.70;99.90
25334;DHT22;24559;53.590;9.764;2023-04-03T06:38:22;5.50;99.90
25334;DHT22;24559;53.590;9.764;2023-04-03T06:40:47;5.10;99.90
25334;DHT22;24559;53.590;9.764;2023-04-03T06:43:13;5.40;99.90
25334;DHT22;24559;53.590;9.764;2023-04-03T06:45:39;5.60;99.90
25334;DHT22;24559;53.590;9.764;2023-04-03T06:48:04;5.90;99.90
25334;DHT22;24559;53.590;9.764;2023-04-03T06:50:30;6.20;99.90
25334;DHT22;24559;53.590;9.764;2023-04-03T06:52:56;6.00;99.90
25334;DHT22;24559;53.590;9.764;2023-04-03T06:55:22;6.80;99.90
25334;DHT22;24559;53.590;9.764;2023-04-03T06:57:48;7.10;99.90
25334;DHT22;24559;53.590;9.764;2023-04-03T07:00:14;7.40;99.90
25334;DHT22;24559;53.590;9.764;2023-04-03T07:02:40;7.60;99.90
25334;DHT22;24559;53.590;9.764;2023-04-03T07:05:06;7.70;99.90
25334;DHT22;24559;53.590;9.764;2023-04-03T07:07:32;7.90;99.90
25334;DHT22;24559;53.590;9.764;2023-04-03T07:09:59;8.00;99.90
25334;DHT22;24559;53.590;9.764;2023-04-03T07:12:26;8.20;99.90
25334;DHT22;24559;53.590;9.764;2023-04-03T07:14:52;8.30;99.90
25334;DHT22;24559;53.590;9.764;2023-04-03T07:17:18;8.50;99.90
25334;DHT22;24559;53.590;9.764;2023-04-03T07:19:44;8.70;99.90
25334;DHT22;24559;53.590;9.764;2023-04-03T07:22:09;8.90;99.90
25334;DHT22;24559;53.590;9.764;2023-04-03T07:24:36;9.00;99.90
25334;DHT22;24559;53.590;9.764;2023-04-03T07:27:02;9.20;99.90
25334;DHT22;24559;53.590;9.764;2023-04-03T07:29:28;9.30;99.90
25334;DHT22;24559;53.590;9.764;2023-04-03T07:31:54;9.40;99.90
25334;DHT22;24559;53.590;9.764;2023-04-03T07:34:20;9.50;99.90
25334;DHT22;24559;53.590;9.764;2023-04-03T07:36:46;9.60;99.90
25334;DHT22;24559;53.590;9.764;2023-04-03T07:39:11;9.70;99.90
25334;DHT22;24559;53.590;9.764;2023-04-03T07:41:37;9.80;99.90
25334;DHT22;24559;53.590;9.764;2023-04-03T07:44:03;9.90;99.90
25334;DHT22;24559;53.590;9.764;2023-04-03T07:46:31;10.10;99.90
25334;DHT22;24559;53.590;9.764;2023-04-03T07:48:57;10.20;99.90
25334;DHT22;24559;53.590;9.764;2023-04-03T07:51:23;10.30;99.90
25334;DHT22;24559;53.590;9.764;2023-04-03T07:53:50;10.50;99.90
25334;DHT22;24559;53.590;9.764;2023-04-03T07:56:16;10.60;99.90
25334;DHT22;24559;53.590;9.764;2023-04-03T07:58:42;10.80;99.90
25334;DHT22;24559;53.590;9.764;2023-04-03T08:01:08;10.90;99.90
25334;DHT22;24559;53.590;9.764;2023-04-03T08:03:33;10.80;99.90
25334;DHT22;24559;53.590;9.764;2023-04-03T08:06:04;10.90;99.90
25334;DHT22;24559;53.590;9.764;2023-04-03T08:08:30;10.90;99.90
25334;DHT22;24559;53.590;9.764;2023-04-03T08:10:58;11.00;99.90
25334;DHT22;24559;53.590;9.764;2023-04-03T08:13:24;11.10;99.90
25334;DHT22;24559;53.590;9.764;2023-04-03T08:15:50;11.20;99.90
25334;DHT22;24559;53.590;9.764;2023-04-03T08:18:16;11.20;99.90
25334;DHT22;24559;53.590;9.764;2023-04-03T08:20:42;11.30;99.90
25334;DHT22;24559;53.590;9.764;2023-04-03T08:23:08;11.40;99.90
25334;DHT22;24559;53.590;9.764;2023-04-03T08:25:37;11.40;99.90
25334;DHT22;24559;53.590;9.764;2023-04-03T08:28:03;11.50;99.90
25334;DHT22;24559;53.590;9.764;2023-04-03T08:30:29;11.70;99.90
25334;DHT22;24559;53.590;9.764;2023-04-03T08:32:57;11.70;99.90
25334;DHT22;24559;53.590;9.764;2023-04-03T08:35:25;11.50;99.90
25334;DHT22;24559;53.590;9.764;2023-04-03T08:37:51;11.30;99.90
25334;DHT22;24559;53.590;9.764;2023-04-03T08:40:16;11.10;99.90
25334;DHT22;24559;53.590;9.764;2023-04-03T08:45:43;10.90;99.90
25334;DHT22;24559;53.590;9.764;2023-04-03T08:50:46;11.30;99.90
25334;DHT22;24559;53.590;9.764;2023-04-03T08:53:17;11.60;99.90
25334;DHT22;24559;53.590;9.764;2023-04-03T08:55:48;11.90;99.90
25334;DHT22;24559;53.590;9.764;2023-04-03T09:03:21;12.70;99.90
25334;DHT22;24559;53.590;9.764;2023-04-03T09:05:52;12.90;99.90
25334;DHT22;24559;53.590;9.764;2023-04-03T09:13:43;13.70;99.90
25334;DHT22;24559;53.590;9.764;2023-04-03T09:16:14;14.00;99.90
25334;DHT22;24559;53.590;9.764;2023-04-03T09:18:44;14.30;99.90
25334;DHT22;24559;53.590;9.764;2023-04-03T09:21:22;14.60;99.90
25334;DHT22;24559;53.590;9.764;2023-04-03T09:26:34;14.30;99.90
25334;DHT22;24559;53.590;9.764;2023-04-03T09:29:04;14.10;99.90
25334;DHT22;24559;53.590;9.764;2023-04-03T09:31:42;14.60;99.90
25334;DHT22;24559;53.590;9.764;2023-04-03T09:36:53;14.10;99.90
25334;DHT22;24559;53.590;9.764;2023-04-03T09:39:20;14.10;91.90
25334;DHT22;24559;53.590;9.764;2023-04-03T09:44:25;14.10;99.90
25334;DHT22;24559;53.590;9.764;2023-04-03T09:46:51;14.40;99.90
25334;DHT22;24559;53.590;9.764;2023-04-03T09:49:17;14.30;99.90
25334;DHT22;24559;53.590;9.764;2023-04-03T09:51:43;14.30;97.90
25334;DHT22;24559;53.590;9.764;2023-04-03T09:56:54;13.80;93.60
25334;DHT22;24559;53.590;9.764;2023-04-03T09:59:21;13.60;99.90
25334;DHT22;24559;53.590;9.764;2023-04-03T10:01:57;13.50;99.90
25334;DHT22;24559;53.590;9.764;2023-04-03T10:04:23;13.70;99.90
25334;DHT22;24559;53.590;9.764;2023-04-03T10:06:51;13.70;88.10
25334;DHT22;24559;53.590;9.764;2023-04-03T10:09:18;13.90;99.10
25334;DHT22;24559;53.590;9.764;2023-04-03T10:12:05;14.30;99.90
25334;DHT22;24559;53.590;9.764;2023-04-03T10:14:32;14.60;99.90
25334;DHT22;24559;53.590;9.764;2023-04-03T10:19:45;15.50;93.60
25334;DHT22;24559;53.590;9.764;2023-04-03T10:24:47;16.00;89.50
25334;DHT22;24559;53.590;9.764;2023-04-03T10:27:17;16.30;88.10
25334;DHT22;24559;53.590;9.764;2023-04-03T10:35:00;16.50;75.90
25334;DHT22;24559;53.590;9.764;2023-04-03T10:40:21;16.40;82.50
25334;DHT22;24559;53.590;9.764;2023-04-03T10:43:10;16.60;82.70
25334;DHT22;24559;53.590;9.764;2023-04-03T10:58:24;18.50;66.70
25334;DHT22;24559;53.590;9.764;2023-04-03T11:00:50;19.00;73.70
25334;DHT22;24559;53.590;9.764;2023-04-03T11:03:35;19.40;74.60
25334;DHT22;24559;53.590;9.764;2023-04-03T11:06:02;19.80;69.00
25334;DHT22;24559;53.590;9.764;2023-04-03T11:08:36;20.10;54.80
25334;DHT22;24559;53.590;9.764;2023-04-03T11:11:26;19.20;64.70
25334;DHT22;24559;53.590;9.764;2023-04-03T11:14:26;19.00;63.10
25334;DHT22;24559;53.590;9.764;2023-04-03T11:16:45;18.70;65.40
25334;DHT22;24559;53.590;9.764;2023-04-03T11:19:14;18.40;65.00
25334;DHT22;24559;53.590;9.764;2023-04-03T11:21:54;17.90;70.30
25334;DHT22;24559;53.590;9.764;2023-04-03T11:24:24;17.20;61.20
25334;DHT22;24559;53.590;9.764;2023-04-03T11:26:50;16.40;68.90
25334;DHT22;24559;53.590;9.764;2023-04-03T11:29:21;16.30;76.40
25334;DHT22;24559;53.590;9.764;2023-04-03T11:31:56;16.50;74.30
25334;DHT22;24559;53.590;9.764;2023-04-03T11:34:30;16.90;81.30
25334;DHT22;24559;53.590;9.764;2023-04-03T11:36:59;17.40;80.00
25334;DHT22;24559;53.590;9.764;2023-04-03T11:39:34;17.90;76.90
25334;DHT22;24559;53.590;9.764;2023-04-03T11:44:39;18.90;64.40
25334;DHT22;24559;53.590;9.764;2023-04-03T11:47:06;19.10;61.90
25334;DHT22;24559;53.590;9.764;2023-04-03T11:58:02;19.80;52.70
25334;DHT22;24559;53.590;9.764;2023-04-03T12:13:37;19.80;54.00
25334;DHT22;24559;53.590;9.764;2023-04-03T12:16:05;19.90;48.20
25334;DHT22;24559;53.590;9.764;2023-04-03T12:32:24;20.00;54.70
25334;DHT22;24559;53.590;9.764;2023-04-03T12:34:55;20.30;53.50
25334;DHT22;24559;53.590;9.764;2023-04-03T12:37:21;20.50;47.20
25334;DHT22;24559;53.590;9.764;2023-04-03T12:42:30;21.10;51.60
25334;DHT22;24559;53.590;9.764;2023-04-03T12:47:39;20.70;48.50
25334;DHT22;24559;53.590;9.764;2023-04-03T12:53:06;20.90;45.80
25334;DHT22;24559;53.590;9.764;2023-04-03T12:55:32;21.10;49.60
25334;DHT22;24559;53.590;9.764;2023-04-03T12:58:21;21.40;43.70
25334;DHT22;24559;53.590;9.764;2023-04-03T13:00:58;21.40;46.80
25334;DHT22;24559;53.590;9.764;2023-04-03T13:03:24;21.40;53.60
25334;DHT22;24559;53.590;9.764;2023-04-03T13:05:52;21.70;51.00
25334;DHT22;24559;53.590;9.764;2023-04-03T13:08:18;21.80;42.60
25334;DHT22;24559;53.590;9.764;2023-04-03T13:13:17;21.70;48.30
25334;DHT22;24559;53.590;9.764;2023-04-03T13:15:44;21.60;48.50
25334;DHT22;24559;53.590;9.764;2023-04-03T13:18:24;21.30;43.80
25334;DHT22;24559;53.590;9.764;2023-04-03T13:20:50;21.10;49.40
25334;DHT22;24559;53.590;9.764;2023-04-03T13:23:16;20.70;49.20
25334;DHT22;24559;53.590;9.764;2023-04-03T13:25:43;20.40;45.00
25334;DHT22;24559;53.590;9.764;2023-04-03T13:28:11;20.20;51.90
25334;DHT22;24559;53.590;9.764;2023-04-03T13:30:37;20.20;49.10
25334;DHT22;24559;53.590;9.764;2023-04-03T13:33:04;20.10;47.20
25334;DHT22;24559;53.590;9.764;2023-04-03T13:35:36;20.10;43.30
25334;DHT22;24559;53.590;9.764;2023-04-03T13:38:07;20.20;46.00
25334;DHT22;24559;53.590;9.764;2023-04-03T13:40:47;19.90;51.70
25334;DHT22;24559;53.590;9.764;2023-04-03T13:43:18;20.00;49.40
25334;DHT22;24559;53.590;9.764;2023-04-03T13:46:02;20.10;42.50
25334;DHT22;24559;53.590;9.764;2023-04-03T13:48:38;20.20;45.00
25334;DHT22;24559;53.590;9.764;2023-04-03T13:51:07;20.20;51.50
25334;DHT22;24559;53.590;9.764;2023-04-03T13:53:43;20.10;53.30
25334;DHT22;24559;53.590;9.764;2023-04-03T13:56:16;19.50;54.00
25334;DHT22;24559;53.590;9.764;2023-04-03T13:58:52;20.20;53.50
25334;DHT22;24559;53.590;9.764;2023-04-03T14:01:19;19.90;45.30
25334;DHT22;24559;53.590;9.764;2023-04-03T14:03:56;19.60;47.90
25334;DHT22;24559;53.590;9.764;2023-04-03T14:06:22;19.30;45.20
25334;DHT22;24559;53.590;9.764;2023-04-03T14:08:47;19.30;53.90
25334;DHT22;24559;53.590;9.764;2023-04-03T14:11:18;19.20;53.10
25334;DHT22;24559;53.590;9.764;2023-04-03T14:13:44;19.40;53.00
25334;DHT22;24559;53.590;9.764;2023-04-03T14:16:15;19.40;52.90
25334;DHT22;24559;53.590;9.764;2023-04-03T14:18:42;19.20;48.60
25334;DHT22;24559;53.590;9.764;2023-04-03T14:21:10;18.40;51.40
25334;DHT22;24559;53.590;9.764;2023-04-03T14:23:36;17.90;49.90
25334;DHT22;24559;53.590;9.764;2023-04-03T14:26:02;17.70;56.00
25334;DHT22;24559;53.590;9.764;2023-04-03T14:28:28;17.80;60.70
25334;DHT22;24559;53.590;9.764;2023-04-03T14:30:54;17.80;61.40
25334;DHT22;24559;53.590;9.764;2023-04-03T14:33:20;18.20;60.50
25334;DHT22;24559;53.590;9.764;2023-04-03T14:35:47;18.30;56.70
25334;DHT22;24559;53.590;9.764;2023-04-03T14:38:20;18.40;57.90
25334;DHT22;24559;53.590;9.764;2023-04-03T14:40:47;18.40;57.50
25334;DHT22;24559;53.590;9.764;2023-04-03T14:43:13;18.50;56.20
25334;DHT22;24559;53.590;9.764;2023-04-03T14:45:38;18.50;53.20
25334;DHT22;24559;53.590;9.764;2023-04-03T14:48:04;18.50;53.90
25334;DHT22;24559;53.590;9.764;2023-04-03T14:50:32;18.50;53.60
25334;DHT22;24559;53.590;9.764;2023-04-03T14:52:59;18.20;53.40
25334;DHT22;24559;53.590;9.764;2023-04-03T14:55:25;17.80;54.00
25334;DHT22;24559;53.590;9.764;2023-04-03T14:57:51;17.60;56.70
25334;DHT22;24559;53.590;9.764;2023-04-03T15:00:18;17.20;57.80
25334;DHT22;24559;53.590;9.764;2023-04-03T15:02:44;16.90;57.10
25334;DHT22;24559;53.590;9.764;2023-04-03T15:05:11;16.60;59.70
25334;DHT22;24559;53.590;9.764;2023-04-03T15:07:41;16.50;62.20
25334;DHT22;24559;53.590;9.764;2023-04-03T15:10:15;16.60;61.90
25334;DHT22;24559;53.590;9.764;2023-04-03T15:12:41;16.80;65.20
25334;DHT22;24559;53.590;9.764;2023-04-03T15:15:07;16.90;67.40
25334;DHT22;24559;53.590;9.764;2023-04-03T15:17:33;17.00;65.60
25334;DHT22;24559;53.590;9.764;2023-04-03T15:19:59;16.90;61.60
25334;DHT22;24559;53.590;9.764;2023-04-03T15:22:26;16.30;60.40
25334;DHT22;24559;53.590;9.764;2023-04-03T15:24:52;16.80;64.00
25334;DHT22;24559;53.590;9.764;2023-04-03T15:27:17;16.40;63.30
25334;DHT22;24559;53.590;9.764;2023-04-03T15:29:43;16.10;62.40
25334;DHT22;24559;53.590;9.764;2023-04-03T15:32:09;15.70;66.60
25334;DHT22;24559;53.590;9.764;2023-04-03T15:34:35;15.40;69.60
25334;DHT22;24559;53.590;9.764;2023-04-03T15:37:04;15.30;71.10
25334;DHT22;24559;53.590;9.764;2023-04-03T15:39:31;15.10;71.10
25334;DHT22;24559;53.590;9.764;2023-04-03T15:41:58;15.10;75.10
25334;DHT22;24559;53.590;9.764;2023-04-03T15:44:32;15.10;77.10
25334;DHT22;24559;53.590;9.764;2023-04-03T15:46:57;15.00;75.40
25334;DHT22;24559;53.590;9.764;2023-04-03T15:49:23;15.00;76.10
25334;DHT22;24559;53.590;9.764;2023-04-03T15:51:49;14.50;76.90
25334;DHT22;24559;53.590;9.764;2023-04-03T15:54:15;14.20;79.70
25334;DHT22;24559;53.590;9.764;2023-04-03T15:56:41;13.80;81.60
25334;DHT22;24559;53.590;9.764;2023-04-03T15:59:06;13.40;83.70
25334;DHT22;24559;53.590;9.764;2023-04-03T16:01:33;13.20;86.70
25334;DHT22;24559;53.590;9.764;2023-04-03T16:04:00;12.90;87.00
25334;DHT22;24559;53.590;9.764;2023-04-03T16:06:26;12.80;89.50
25334;DHT22;24559;53.590;9.764;2023-04-03T16:08:54;12.70;91.10
25334;DHT22;24559;53.590;9.764;2023-04-03T16:11:24;12.30;94.40
25334;DHT22;24559;53.590;9.764;2023-04-03T16:13:50;12.20;96.60
25334;DHT22;24559;53.590;9.764;2023-04-03T16:16:16;12.10;95.10
25334;DHT22;24559;53.590;9.764;2023-04-03T16:18:45;12.20;94.70
25334;DHT22;24559;53.590;9.764;2023-04-03T16:21:12;12.10;96.30
25334;DHT22;24559;53.590;9.764;2023-04-03T16:23:39;12.10;95.30
25334;DHT22;24559;53.590;9.764;2023-04-03T16:26:05;12.10;95.50
25334;DHT22;24559;53.590;9.764;2023-04-03T16:28:33;11.70;97.60
25334;DHT22;24559;53.590;9.764;2023-04-03T16:30:59;11.60;98.60
25334;DHT22;24559;53.590;9.764;2023-04-03T16:33:25;11.50;98.70
25334;DHT22;24559;53.590;9.764;2023-04-03T16:35:51;11.50;99.70
25334;DHT22;24559;53.590;9.764;2023-04-03T16:38:17;11.50;99.90
25334;DHT22;24559;53.590;9.764;2023-04-03T16:40:44;11.40;99.90
25334;DHT22;24559;53.590;9.764;2023-04-03T16:43:10;11.40;99.90
25334;DHT22;24559;53.590;9.764;2023-04-03T16:45:36;11.40;99.90
25334;DHT22;24559;53.590;9.764;2023-04-03T16:48:04;11.40;99.90
25334;DHT22;24559;53.590;9.764;2023-04-03T16:50:30;11.50;99.90
25334;DHT22;24559;53.590;9.764;2023-04-03T16:52:56;11.50;99.90
25334;DHT22;24559;53.590;9.764;2023-04-03T16:55:21;11.40;99.90
25334;DHT22;24559;53.590;9.764;2023-04-03T16:57:47;11.40;99.90
25334;DHT22;24559;53.590;9.764;2023-04-03T17:00:13;11.30;99.90
25334;DHT22;24559;53.590;9.764;2023-04-03T17:02:39;11.30;99.90
25334;DHT22;24559;53.590;9.764;2023-04-03T17:05:06;11.10;99.90
25334;DHT22;24559;53.590;9.764;2023-04-03T17:07:31;11.00;99.90
25334;DHT22;24559;53.590;9.764;2023-04-03T17:09:57;11.00;99.90
25334;DHT22;24559;53.590;9.764;2023-04-03T17:12:23;10.90;99.90
25334;DHT22;24559;53.590;9.764;2023-04-03T17:14:49;10.80;99.90
25334;DHT22;24559;53.590;9.764;2023-04-03T17:17:15;10.80;99.90
25334;DHT22;24559;53.590;9.764;2023-04-03T17:19:43;10.60;99.90
25334;DHT22;24559;53.590;9.764;2023-04-03T17:22:09;9.80;99.90
25334;DHT22;24559;53.590;9.764;2023-04-03T17:24:35;10.50;99.90
25334;DHT22;24559;53.590;9.764;2023-04-03T17:27:02;10.40;99.90